Time;durP1;ratioP1;P1;durP2;ratioP2;P2;SDS_P1;SDS_P2;PMS_P1;PMS_P2;Temp;Humidity;BMP_temperature;BMP_pressure;BME280_temperature;BME280_humidity;BME280_pressure;Samples;Min_cycle;Max_cycle;Signal;HPM_P1;HPM_P2
2022/09/26 00:01:28;;;;;;;7.03;4.40;;;;;;;9.08;100.00;95385.16;4972330;28;24457;-71
2022/09/26 00:03:56;;;;;;;4.85;4.03;;;;;;;9.17;100.00;95387.19;4978611;28;24441;-71
2022/09/26 00:06:24;;;;;;;4.65;3.63;;;;;;;9.27;100.00;95391.75;4972794;28;24457;-71
2022/09/26 00:08:51;;;;;;;6.93;4.35;;;;;;;9.15;100.00;95395.94;4979304;28;24444;-70
2022/09/26 00:11:20;;;;;;;31.02;5.65;;;;;;;8.96;100.00;95393.69;4976429;28;24795;-70
2022/09/26 00:13:50;;;;;;;22.67;4.37;;;;;;;9.01;100.00;95401.16;4968815;28;24441;-70
2022/09/26 00:16:17;;;;;;;22.48;2.95;;;;;;;9.07;100.00;95400.78;4977317;28;25048;-71
2022/09/26 00:18:48;;;;;;;5.75;2.53;;;;;;;9.13;100.00;95393.47;4969491;28;24465;-71
2022/09/26 00:21:14;;;;;;;5.30;3.28;;;;;;;9.22;100.00;95392.06;4978654;28;24433;-71
2022/09/26 00:23:41;;;;;;;17.58;2.97;;;;;;;9.26;100.00;95383.19;4970121;28;24999;-70
2022/09/26 00:26:08;;;;;;;8.00;2.58;;;;;;;9.24;100.00;95376.47;4979694;28;24432;-71
2022/09/26 00:28:35;;;;;;;17.38;2.67;;;;;;;9.27;100.00;95373.66;4970199;28;24434;-71
2022/09/26 00:31:04;;;;;;;7.57;2.63;;;;;;;9.27;100.00;95378.84;4980723;28;24432;-71
2022/09/26 00:33:30;;;;;;;31.60;3.60;;;;;;;9.26;100.00;95382.34;4969765;28;24991;-71
2022/09/26 00:35:58;;;;;;;60.60;3.75;;;;;;;8.98;100.00;95378.13;4981580;28;25035;-71
2022/09/26 00:38:25;;;;;;;42.83;2.88;;;;;;;8.66;100.00;95392.06;4964558;28;24438;-70
2022/09/26 00:40:52;;;;;;;18.25;2.38;;;;;;;8.66;100.00;95380.94;4977027;28;24993;-70
2022/09/26 00:43:26;;;;;;;3.38;2.22;;;;;;;8.64;100.00;95373.28;4972355;28;24437;-70
2022/09/26 00:45:54;;;;;;;2.65;2.38;;;;;;;8.62;100.00;95376.88;4980861;28;24425;-70
2022/09/26 00:48:20;;;;;;;6.70;2.78;;;;;;;8.76;100.00;95373.44;4972102;28;24434;-70
2022/09/26 00:50:48;;;;;;;5.15;1.90;;;;;;;8.91;100.00;95367.34;4979997;28;24441;-70
2022/09/26 00:53:19;;;;;;;17.60;2.00;;;;;;;8.98;100.00;95368.59;4973420;28;24520;-70
2022/09/26 00:55:49;;;;;;;9.73;2.30;;;;;;;9.13;100.00;95370.22;4980331;28;20795;-70
2022/09/26 00:58:21;;;;;;;12.55;2.40;;;;;;;8.88;100.00;95362.34;4973302;28;24448;-70
2022/09/26 01:00:50;;;;;;;5.03;2.22;;;;;;;8.75;100.00;95366.59;4981329;28;24441;-70
2022/09/26 01:03:18;;;;;;;3.57;2.53;;;;;;;8.72;100.00;95362.50;4973051;28;24569;-70
2022/09/26 01:05:46;;;;;;;2.50;2.30;;;;;;;8.77;100.00;95355.28;4981262;28;24429;-70
2022/09/26 01:08:14;;;;;;;5.47;1.98;;;;;;;8.85;100.00;95357.38;4974451;28;24895;-70
2022/09/26 01:10:43;;;;;;;4.33;2.13;;;;;;;8.74;100.00;95355.47;4981162;28;24436;-70
2022/09/26 01:13:10;;;;;;;2.50;2.15;;;;;;;8.70;100.00;95351.41;4974930;28;24469;-70
2022/09/26 01:15:37;;;;;;;3.65;2.15;;;;;;;8.81;100.00;95345.59;4980102;28;24453;-70
2022/09/26 01:18:03;;;;;;;4.18;2.55;;;;;;;9.10;100.00;95347.16;4977326;28;20872;-70
2022/09/26 01:20:42;;;;;;;5.30;2.90;;;;;;;9.02;100.00;95341.66;4978590;28;20791;-70
2022/09/26 01:23:33;;;;;;;4.68;2.83;;;;;;;8.87;100.00;95358.13;4974849;28;24440;-70
2022/09/26 01:26:31;;;;;;;4.28;3.00;;;;;;;8.83;100.00;95357.47;4976975;28;24440;-70
2022/09/26 01:29:25;;;;;;;4.57;3.42;;;;;;;8.75;100.00;95353.69;4977396;28;20772;-70
2022/09/26 01:34:55;;;;;;;3.38;3.08;;;;;;;8.85;100.00;95358.19;4972357;28;20732;-70
2022/09/26 01:37:32;;;;;;;4.60;3.50;;;;;;;9.04;100.00;95350.13;4969916;28;20753;-70
2022/09/26 01:40:08;;;;;;;4.07;2.90;;;;;;;9.00;100.00;95356.41;4969017;28;24449;-70
2022/09/26 01:42:39;;;;;;;6.95;2.90;;;;;;;8.93;100.00;95355.97;4968238;28;21098;-70
2022/09/26 01:45:14;;;;;;;3.22;2.63;;;;;;;8.94;100.00;95361.97;4974659;28;20691;-70
2022/09/26 01:47:48;;;;;;;3.30;3.00;;;;;;;8.95;100.00;95367.03;4970256;28;24445;-70
2022/09/26 01:50:23;;;;;;;3.90;3.50;;;;;;;8.88;100.00;95362.34;4975769;28;24487;-70
2022/09/26 01:52:55;;;;;;;3.60;3.30;;;;;;;8.94;100.00;95362.81;4970529;28;20770;-70
2022/09/26 01:55:27;;;;;;;3.97;2.80;;;;;;;8.95;100.00;95353.31;4976111;28;20710;-70
2022/09/26 01:57:59;;;;;;;3.83;2.97;;;;;;;8.98;100.00;95345.34;4970770;28;24445;-70
2022/09/26 02:00:26;;;;;;;3.43;2.90;;;;;;;9.00;100.00;95356.41;4978411;28;20799;-70
2022/09/26 02:02:56;;;;;;;3.40;3.03;;;;;;;9.07;100.00;95346.53;4970382;28;24517;-70
2022/09/26 02:05:27;;;;;;;3.83;3.40;;;;;;;9.06;100.00;95343.13;4976179;28;24437;-70
2022/09/26 02:07:59;;;;;;;3.30;3.00;;;;;;;9.06;100.00;95340.53;4970366;28;24536;-70
2022/09/26 02:10:30;;;;;;;6.88;3.58;;;;;;;9.00;100.00;95342.66;4977771;28;24477;-70
2022/09/26 02:13:02;;;;;;;3.15;2.85;;;;;;;9.07;100.00;95341.34;4969422;28;24441;-70
2022/09/26 02:15:32;;;;;;;4.95;2.90;;;;;;;9.03;100.00;95343.31;4975972;28;24883;-70
2022/09/26 02:18:07;;;;;;;3.10;2.65;;;;;;;9.07;100.00;95336.19;4969885;28;20833;-70
2022/09/26 02:20:38;;;;;;;14.90;2.90;;;;;;;8.85;100.00;95329.78;4977335;28;20810;-70
2022/09/26 02:23:05;;;;;;;6.75;2.70;;;;;;;8.84;100.00;95328.16;4969093;28;24437;-70
2022/09/26 02:25:33;;;;;;;7.15;2.60;;;;;;;8.84;100.00;95330.72;4976920;28;24986;-70
2022/09/26 02:28:00;;;;;;;3.10;2.80;;;;;;;8.63;100.00;95322.56;4970805;28;24541;-70
2022/09/26 02:30:27;;;;;;;2.95;2.67;;;;;;;8.77;100.00;95320.88;4977598;28;24444;-70
2022/09/26 02:32:53;;;;;;;4.65;3.03;;;;;;;8.77;100.00;95321.72;4970149;28;24430;-70
2022/09/26 02:38:07;;;;;;;3.38;2.58;;;;;;;8.81;100.00;95324.94;4970009;28;24476;-70
2022/09/26 02:40:41;;;;;;;4.60;2.47;;;;;;;8.82;100.00;95331.75;4971805;28;24967;-70
2022/09/26 02:43:26;;;;;;;3.10;2.50;;;;;;;8.90;100.00;95332.94;4969441;28;24798;-70
2022/09/26 02:46:04;;;;;;;2.87;2.30;;;;;;;8.93;100.00;95335.28;4967922;28;24491;-70
2022/09/26 02:48:48;;;;;;;4.10;2.47;;;;;;;8.96;100.00;95324.78;4976908;28;24792;-70
2022/09/26 02:51:30;;;;;;;2.90;2.42;;;;;;;8.96;100.00;95318.78;4971953;28;24440;-70
2022/09/26 02:54:10;;;;;;;3.22;2.58;;;;;;;8.99;100.00;95315.19;4972702;28;24437;-70
2022/09/26 02:56:54;;;;;;;5.30;2.47;;;;;;;9.00;100.00;95309.91;4966533;28;24457;-70
2022/09/26 02:59:27;;;;;;;2.80;2.25;;;;;;;8.93;100.00;95312.06;4977238;28;24549;-70
2022/09/26 03:01:58;;;;;;;3.63;2.47;;;;;;;8.99;100.00;95299.69;4973112;28;24535;-70
2022/09/26 03:04:36;;;;;;;2.47;2.23;;;;;;;8.96;100.00;95293.78;4969029;28;24440;-70
2022/09/26 03:07:10;;;;;;;6.60;2.20;;;;;;;9.03;100.00;95295.97;4974348;28;24452;-70
2022/09/26 03:09:39;;;;;;;2.70;2.50;;;;;;;9.04;100.00;95279.56;4977518;28;24445;-70
2022/09/26 03:12:08;;;;;;;3.00;2.40;;;;;;;9.05;100.00;95289.81;4974732;28;24444;-70
2022/09/26 03:14:39;;;;;;;2.40;2.20;;;;;;;8.96;100.00;95287.78;4977730;28;20774;-70
2022/09/26 03:17:07;;;;;;;2.90;2.60;;;;;;;8.80;100.00;95287.94;4970188;28;24456;-70
2022/09/26 03:19:38;;;;;;;2.72;2.25;;;;;;;8.75;100.00;95276.25;4977963;28;24442;-71
2022/09/26 03:22:06;;;;;;;2.55;2.03;;;;;;;8.74;100.00;95283.16;4975358;28;20776;-70
2022/09/26 03:24:35;;;;;;;2.30;2.10;;;;;;;8.73;100.00;95276.34;4965447;28;24437;-70
2022/09/26 03:27:03;;;;;;;3.97;2.10;;;;;;;8.75;100.00;95277.09;4976531;28;24429;-70
2022/09/26 03:29:30;;;;;;;2.83;2.28;;;;;;;8.77;100.00;95282.97;4966311;28;24449;-70
2022/09/26 03:31:57;;;;;;;5.95;2.42;;;;;;;8.77;100.00;95275.22;4975664;28;24497;-70
2022/09/26 03:34:23;;;;;;;5.10;2.10;;;;;;;8.79;100.00;95282.88;4966542;28;24437;-70
2022/09/26 03:36:50;;;;;;;2.53;2.10;;;;;;;8.81;100.00;95273.28;4974812;28;25029;-70
2022/09/26 03:39:18;;;;;;;3.60;2.75;;;;;;;8.83;100.00;95274.84;4970996;28;24982;-70
2022/09/26 03:41:44;;;;;;;2.58;2.30;;;;;;;8.78;100.00;95270.88;4975330;28;24440;-70
2022/09/26 03:44:12;;;;;;;3.35;2.20;;;;;;;8.81;100.00;95268.94;4969974;28;24815;-70
2022/09/26 03:46:38;;;;;;;3.33;2.60;;;;;;;8.83;100.00;95263.69;4974056;28;20826;-70
2022/09/26 03:49:05;;;;;;;5.20;2.53;;;;;;;8.85;100.00;95265.22;4975898;28;24456;-70
2022/09/26 03:51:33;;;;;;;3.20;2.60;;;;;;;8.85;100.00;95248.91;4973792;28;24746;-70
2022/09/26 03:53:59;;;;;;;2.70;2.50;;;;;;;8.81;100.00;95245.69;4977359;28;20819;-70
2022/09/26 03:56:27;;;;;;;3.05;2.75;;;;;;;8.63;100.00;95246.88;4972353;28;24549;-70
2022/09/26 03:58:54;;;;;;;3.28;2.47;;;;;;;8.53;100.00;95250.94;4974851;28;24832;-71
2022/09/26 04:01:22;;;;;;;4.13;2.35;;;;;;;8.45;100.00;95246.28;4979308;28;24444;-71
2022/09/26 04:03:49;;;;;;;4.00;2.40;;;;;;;8.52;100.00;95232.06;4976906;28;24995;-71
2022/09/26 04:06:18;;;;;;;3.63;2.30;;;;;;;8.60;100.00;95237.59;4978096;28;24429;-71
2022/09/26 04:08:47;;;;;;;2.88;2.00;;;;;;;8.64;100.00;95230.44;4979844;28;24433;-71
2022/09/26 04:11:15;;;;;;;2.35;1.90;;;;;;;8.66;100.00;95224.28;4980956;28;24425;-70
2022/09/26 04:13:43;;;;;;;2.72;2.00;;;;;;;8.69;100.00;95218.91;4980626;28;21137;-70
2022/09/26 04:16:10;;;;;;;2.70;2.00;;;;;;;8.67;100.00;95212.19;4974549;28;24543;-70
2022/09/26 04:18:37;;;;;;;3.72;2.08;;;;;;;8.71;100.00;95211.06;4982148;28;24432;-70
2022/09/26 04:21:06;;;;;;;2.72;2.13;;;;;;;8.66;100.00;95203.63;4974206;28;24424;-69
2022/09/26 04:23:35;;;;;;;5.70;2.30;;;;;;;8.65;100.00;95203.72;4968446;28;24444;-72
2022/09/26 04:26:04;;;;;;;3.20;2.10;;;;;;;8.65;100.00;95201.97;4973143;28;24844;-71
2022/09/26 04:28:31;;;;;;;2.42;2.10;;;;;;;8.60;100.00;95200.59;4962326;28;20848;-71
2022/09/26 04:31:00;;;;;;;4.10;2.50;;;;;;;8.54;100.00;95201.00;4973571;28;24440;-71
2022/09/26 04:33:27;;;;;;;3.70;2.15;;;;;;;8.47;100.00;95201.41;4959020;28;24452;-71
2022/09/26 04:35:54;;;;;;;5.63;2.35;;;;;;;8.30;100.00;95205.94;4970851;28;24999;-71
2022/09/26 04:38:20;;;;;;;2.97;2.20;;;;;;;8.32;100.00;95206.66;4971351;28;24433;-71
2022/09/26 04:40:47;;;;;;;4.03;2.40;;;;;;;8.24;100.00;95205.41;4975034;28;24429;-71
2022/09/26 04:43:13;;;;;;;4.70;2.60;;;;;;;8.17;100.00;95209.28;4977433;28;24847;-71
2022/09/26 04:45:41;;;;;;;4.90;2.60;;;;;;;8.07;100.00;95202.22;4975501;28;24445;-71
2022/09/26 04:48:10;;;;;;;4.82;2.63;;;;;;;8.05;100.00;95204.88;4981381;28;25120;-71
2022/09/26 04:50:36;;;;;;;4.85;2.90;;;;;;;8.04;100.00;95197.22;4967329;28;24532;-71
2022/09/26 04:53:05;;;;;;;3.45;2.20;;;;;;;8.08;100.00;95196.13;4967645;28;20771;-71
2022/09/26 04:55:31;;;;;;;2.20;2.00;;;;;;;8.14;100.00;95188.00;4972515;28;21425;-71
2022/09/26 04:57:58;;;;;;;2.33;2.13;;;;;;;8.11;100.00;95183.84;4979409;28;20798;-71
2022/09/26 05:00:24;;;;;;;2.83;2.10;;;;;;;8.08;100.00;95190.97;4964047;28;20793;-71
2022/09/26 05:02:51;;;;;;;4.20;2.08;;;;;;;7.92;100.00;95191.91;4978675;28;20794;-71
2022/09/26 05:05:20;;;;;;;5.40;2.30;;;;;;;7.80;100.00;95184.13;4973709;28;20780;-71
2022/09/26 05:07:46;;;;;;;2.70;2.10;;;;;;;7.60;100.00;95183.59;4971496;28;21134;-71
2022/09/26 05:10:13;;;;;;;3.13;2.23;;;;;;;7.71;100.00;95186.34;4965111;28;20933;-71
2022/09/26 05:12:39;;;;;;;2.10;1.90;;;;;;;7.86;100.00;95184.56;4973727;28;20793;-72
2022/09/26 05:15:08;;;;;;;2.90;2.13;;;;;;;7.96;100.00;95182.22;4976406;28;20776;-71
2022/09/26 05:17:35;;;;;;;2.25;1.80;;;;;;;8.04;100.00;95186.91;4978773;28;24883;-71
2022/09/26 05:20:02;;;;;;;4.78;4.15;;;;;;;8.13;100.00;95179.44;4960282;28;20823;-70
2022/09/26 05:22:31;;;;;;;5.35;4.20;;;;;;;8.21;100.00;95181.53;4968950;28;20810;-72
2022/09/26 05:27:42;;;;;;;4.28;2.30;;;;;;;8.19;100.00;95176.50;4958713;28;20741;-71
2022/09/26 05:30:11;;;;;;;3.50;2.70;;;;;;;8.07;100.00;95179.00;4968435;28;24445;-71
2022/09/26 05:32:37;;;;;;;3.05;2.47;;;;;;;7.94;100.00;95179.75;4980180;28;21178;-71
2022/09/26 05:35:05;;;;;;;3.83;2.35;;;;;;;7.97;100.00;95174.44;4976097;28;20820;-73
2022/09/26 05:37:33;;;;;;;5.05;2.42;;;;;;;8.02;100.00;95163.00;4965971;28;24792;-72
2022/09/26 05:42:43;;;;;;;5.80;3.03;;;;;;;8.06;100.00;95160.13;4964613;28;20809;-72
2022/09/26 05:45:10;;;;;;;5.93;3.38;;;;;;;8.09;100.00;95161.69;4977388;28;24433;-73
2022/09/26 05:47:37;;;;;;;4.15;3.30;;;;;;;8.17;100.00;95154.28;4981813;28;20967;-72
2022/09/26 05:50:08;;;;;;;4.00;3.40;;;;;;;8.25;100.00;95157.22;4967375;28;20798;-72
2022/09/26 05:52:36;;;;;;;4.72;3.30;;;;;;;8.23;100.00;95154.75;4965240;28;20756;-72
2022/09/26 05:55:03;;;;;;;5.30;3.63;;;;;;;8.17;100.00;95167.19;4985322;28;20817;-72
2022/09/26 05:57:29;;;;;;;6.20;3.05;;;;;;;8.16;100.00;95160.38;4981612;28;20801;-72
2022/09/26 05:59:56;;;;;;;4.85;3.35;;;;;;;8.15;100.00;95164.69;4974630;28;24445;-72
2022/09/26 06:02:23;;;;;;;4.00;2.63;;;;;;;8.20;100.00;95159.25;4970844;28;20828;-73
2022/09/26 06:04:49;;;;;;;3.08;2.33;;;;;;;8.24;100.00;95158.13;4984683;28;20807;-72
2022/09/26 06:07:16;;;;;;;2.78;1.92;;;;;;;8.22;100.00;95158.22;4963159;28;21182;-73
2022/09/26 06:09:44;;;;;;;2.60;1.90;;;;;;;8.22;100.00;95162.56;4983843;28;24437;-73
2022/09/26 06:12:10;;;;;;;3.58;1.90;;;;;;;8.19;100.00;95161.00;4973712;28;24457;-73
2022/09/26 06:14:37;;;;;;;5.50;2.40;;;;;;;8.18;100.00;95159.34;4976913;28;24460;-73
2022/09/26 06:17:03;;;;;;;4.33;2.10;;;;;;;8.17;100.00;95162.03;4985567;28;24476;-72
2022/09/26 06:19:30;;;;;;;2.70;1.90;;;;;;;8.28;100.00;95164.75;4977786;28;24448;-72
2022/09/26 06:21:56;;;;;;;5.35;2.20;;;;;;;8.23;100.00;95159.91;4974054;28;20783;-72
2022/09/26 06:24:23;;;;;;;2.95;2.17;;;;;;;8.27;100.00;95155.38;4977298;28;20785;-72
2022/09/26 06:26:51;;;;;;;2.85;2.22;;;;;;;8.28;100.00;95154.44;4973038;28;24910;-73
2022/09/26 06:29:17;;;;;;;3.08;2.25;;;;;;;8.28;100.00;95153.63;4978760;28;24448;-73
2022/09/26 06:31:43;;;;;;;3.30;2.15;;;;;;;8.36;100.00;95154.78;4976199;28;24449;-72
2022/09/26 06:34:11;;;;;;;2.38;1.92;;;;;;;8.38;100.00;95160.72;4979336;28;24440;-72
2022/09/26 06:36:39;;;;;;;3.03;2.20;;;;;;;8.27;100.00;95157.09;4965925;28;21258;-72
2022/09/26 06:39:05;;;;;;;3.03;2.17;;;;;;;8.36;100.00;95156.53;4981332;28;20812;-71
2022/09/26 06:41:34;;;;;;;2.10;1.65;;;;;;;8.51;100.00;95152.16;4971672;28;20776;-71
2022/09/26 06:44:03;;;;;;;4.22;1.80;;;;;;;8.48;100.00;95150.59;4980899;28;24535;-70
2022/09/26 06:46:30;;;;;;;2.67;1.70;;;;;;;8.45;100.00;95143.91;4972294;28;20799;-70
2022/09/26 06:48:56;;;;;;;4.10;2.00;;;;;;;8.54;100.00;95141.66;4983484;28;20785;-71
2022/09/26 06:51:23;;;;;;;2.20;1.80;;;;;;;8.62;100.00;95135.06;4973817;28;24445;-70
2022/09/26 06:53:50;;;;;;;3.45;2.00;;;;;;;8.57;100.00;95131.97;4976492;28;24437;-71
2022/09/26 06:56:17;;;;;;;4.43;1.92;;;;;;;8.63;100.00;95143.63;4966976;28;24438;-70
2022/09/26 06:58:44;;;;;;;3.17;1.80;;;;;;;8.72;100.00;95132.72;4965661;28;24441;-70
2022/09/26 07:01:13;;;;;;;3.80;2.05;;;;;;;8.70;100.00;95131.97;4966955;28;24440;-71
2022/09/26 07:03:39;;;;;;;4.22;1.80;;;;;;;8.62;100.00;95134.22;4957921;28;21480;-71
2022/09/26 07:06:06;;;;;;;2.17;1.90;;;;;;;8.79;100.00;95118.47;4968879;28;24437;-70
2022/09/26 07:08:32;;;;;;;4.72;2.03;;;;;;;8.91;100.00;95117.66;4976953;28;24784;-71
2022/09/26 07:11:00;;;;;;;3.63;1.90;;;;;;;9.05;100.00;95114.16;4969273;28;24440;-72
2022/09/26 07:13:28;;;;;;;3.33;1.85;;;;;;;9.13;100.00;95116.22;4976419;28;24492;-69
2022/09/26 07:15:57;;;;;;;5.95;2.50;;;;;;;9.08;100.00;95113.09;4970650;28;20778;-71
2022/09/26 07:18:25;;;;;;;2.77;1.90;;;;;;;9.12;100.00;95107.66;4975741;28;20829;-71
2022/09/26 07:20:52;;;;;;;3.30;2.00;;;;;;;9.29;100.00;95114.25;4964624;28;20843;-71
2022/09/26 07:23:19;;;;;;;5.22;2.05;;;;;;;9.41;100.00;95108.22;4965982;28;24436;-71
2022/09/26 07:25:47;;;;;;;4.85;2.00;;;;;;;9.51;100.00;95103.25;4978919;28;21680;-71
2022/09/26 07:28:13;;;;;;;4.60;2.10;;;;;;;9.57;100.00;95104.59;4976999;28;25520;-72
2022/09/26 07:30:40;;;;;;;3.58;1.85;;;;;;;9.51;100.00;95097.25;4977464;28;24445;-70
2022/09/26 07:33:07;;;;;;;5.83;2.03;;;;;;;9.57;100.00;95095.09;4976060;28;24430;-72
2022/09/26 07:35:36;;;;;;;2.97;1.97;;;;;;;9.49;100.00;95106.88;4967039;28;20775;-71
2022/09/26 07:38:04;;;;;;;3.50;2.10;;;;;;;9.42;100.00;95098.75;4976829;28;21078;-72
2022/09/26 07:40:31;;;;;;;5.50;1.92;;;;;;;9.49;100.00;95099.94;4967457;28;24446;-72
2022/09/26 07:42:59;;;;;;;4.63;1.90;;;;;;;9.54;100.00;95105.63;4954912;28;24948;-73
2022/09/26 07:50:56;;;;;;;3.45;1.95;;;;;;;9.94;100.00;95101.09;4970511;28;25059;-73
2022/09/26 07:53:23;;;;;;;4.35;2.13;;;;;;;9.90;100.00;95103.97;4964535;28;25241;-73
2022/09/26 07:58:30;;;;;;;3.78;1.70;;;;;;;9.94;100.00;95103.66;4977016;28;24465;-72
2022/09/26 08:00:56;;;;;;;4.07;2.33;;;;;;;9.99;100.00;95095.59;4973396;28;24437;-72
2022/09/26 08:03:25;;;;;;;3.92;1.98;;;;;;;10.07;100.00;95095.03;4977187;28;24437;-72
2022/09/26 08:05:54;;;;;;;3.33;2.00;;;;;;;10.01;100.00;95098.91;4972365;28;24437;-72
2022/09/26 08:08:21;;;;;;;3.47;1.98;;;;;;;10.17;100.00;95089.09;4977189;28;24437;-72
2022/09/26 08:10:47;;;;;;;4.55;2.30;;;;;;;10.33;100.00;95090.59;4968923;28;24444;-72
2022/09/26 08:13:14;;;;;;;3.85;2.08;;;;;;;10.54;100.00;95085.63;4977754;28;24780;-72
2022/09/26 08:15:40;;;;;;;3.95;1.95;;;;;;;10.73;100.00;95083.31;4982294;28;24441;-72
2022/09/26 08:18:07;;;;;;;5.63;2.40;;;;;;;11.12;100.00;95079.50;4974765;28;25006;-71
2022/09/26 08:20:34;;;;;;;3.20;2.30;;;;;;;11.22;100.00;95082.22;4970698;28;24515;-72
2022/09/26 08:23:02;;;;;;;4.72;2.00;;;;;;;11.57;100.00;95084.69;4979746;28;24811;-73
2022/09/26 08:25:28;;;;;;;4.22;1.90;;;;;;;11.71;100.00;95069.81;4970461;28;24442;-72
2022/09/26 08:27:58;;;;;;;3.65;1.80;;;;;;;12.05;100.00;95073.19;4980747;28;24440;-73
2022/09/26 08:30:30;;;;;;;3.50;2.20;;;;;;;12.21;100.00;95073.63;4966895;28;25117;-73
2022/09/26 08:32:57;;;;;;;3.45;1.98;;;;;;;12.35;100.00;95072.53;4964884;28;24436;-72
2022/09/26 08:35:26;;;;;;;7.65;2.30;;;;;;;12.43;100.00;95066.72;4975353;28;24481;-73
2022/09/26 08:37:52;;;;;;;3.78;1.67;;;;;;;12.34;100.00;95063.88;4978205;28;25002;-72
2022/09/26 08:40:26;;;;;;;4.70;1.90;;;;;;;12.72;100.00;95059.97;4969858;28;24500;-73
2022/09/26 08:43:06;;;;;;;8.65;2.28;;;;;;;12.68;100.00;95061.16;4977824;28;24434;-72
2022/09/26 08:48:43;;;;;;;3.05;1.83;;;;;;;13.54;100.00;95054.78;4967841;28;25072;-73
2022/09/26 08:51:21;;;;;;;8.13;2.30;;;;;;;13.52;100.00;95056.69;4975500;28;24445;-73
2022/09/26 08:53:52;;;;;;;2.40;1.67;;;;;;;13.41;100.00;95050.75;4983087;28;24433;-73
2022/09/26 08:56:29;;;;;;;4.05;1.88;;;;;;;13.28;100.00;95053.59;4973791;28;24445;-74
2022/09/26 08:58:58;;;;;;;4.38;1.80;;;;;;;13.66;100.00;95052.91;4976159;28;25010;-73
2022/09/26 09:01:28;;;;;;;5.13;1.80;;;;;;;13.88;100.00;95061.47;4978447;28;24438;-73
2022/09/26 09:04:01;;;;;;;3.23;1.50;;;;;;;13.76;99.34;95052.94;4975181;28;24433;-73
2022/09/26 09:06:28;;;;;;;10.32;1.90;;;;;;;14.22;100.00;95059.31;4973392;28;24528;-73
2022/09/26 09:08:57;;;;;;;4.93;1.80;;;;;;;13.96;97.20;95052.00;4983928;28;25001;-73
2022/09/26 09:11:49;;;;;;;2.92;1.48;;;;;;;14.16;95.41;95044.22;4984213;28;24467;-73
2022/09/26 09:14:35;;;;;;;5.03;1.63;;;;;;;14.38;92.38;95041.34;4972536;28;24448;-74
2022/09/26 09:17:12;;;;;;;6.75;1.55;;;;;;;14.23;91.75;95047.94;4976826;28;24433;-74
2022/09/26 09:19:49;;;;;;;2.80;1.20;;;;;;;14.16;89.96;95045.03;4981731;28;24500;-74
2022/09/26 09:22:34;;;;;;;3.35;1.23;;;;;;;14.40;92.40;95049.84;4966564;28;24919;-74
2022/09/26 09:25:03;;;;;;;8.13;1.50;;;;;;;14.32;90.69;95035.88;4971381;28;24974;-75
2022/09/26 09:27:44;;;;;;;2.58;1.38;;;;;;;13.70;91.52;95040.44;4986469;28;24443;-73
2022/09/26 09:30:18;;;;;;;3.25;1.50;;;;;;;13.46;92.14;95035.56;4969891;28;24448;-73
2022/09/26 09:32:51;;;;;;;2.30;1.23;;;;;;;13.39;93.23;95035.28;4978693;28;24441;-73
2022/09/26 09:35:22;;;;;;;3.30;1.13;;;;;;;13.45;96.00;95034.75;4972298;28;24433;-73
2022/09/26 09:37:52;;;;;;;2.95;1.45;;;;;;;13.27;97.04;95034.56;4982041;28;24452;-73
2022/09/26 09:40:40;;;;;;;3.83;1.10;;;;;;;13.04;96.75;95040.84;4970637;28;25048;-73
2022/09/26 09:43:16;;;;;;;4.70;1.17;;;;;;;13.15;94.15;95026.94;4977246;28;24445;-72
2022/09/26 09:45:47;;;;;;;3.22;1.10;;;;;;;13.19;92.40;95023.94;4972385;28;24434;-72
2022/09/26 09:48:15;;;;;;;1.55;0.90;;;;;;;13.97;93.23;95018.97;4979091;28;24962;-72
2022/09/26 09:50:53;;;;;;;2.65;1.25;;;;;;;14.20;87.16;95006.53;4972311;28;24444;-72
2022/09/26 09:53:37;;;;;;;1.85;0.90;;;;;;;14.37;87.45;95003.25;4978942;28;24437;-72
2022/09/26 09:56:11;;;;;;;2.47;1.05;;;;;;;14.62;87.31;95004.50;4976281;28;24768;-72
2022/09/26 09:58:52;;;;;;;1.80;0.85;;;;;;;14.44;82.45;95004.34;4967843;28;24449;-72
2022/09/26 10:01:26;;;;;;;2.97;0.88;;;;;;;14.57;77.72;95001.47;4974760;28;24991;-72
2022/09/26 10:04:02;;;;;;;2.85;0.82;;;;;;;14.49;78.59;95003.91;4977374;28;24993;-72
2022/09/26 10:06:31;;;;;;;0.80;0.68;;;;;;;14.28;79.99;94997.09;4979967;28;24437;-72
2022/09/26 10:08:59;;;;;;;3.20;1.02;;;;;;;14.63;77.25;94990.50;4977951;28;24512;-73
2022/09/26 10:11:30;;;;;;;1.40;0.75;;;;;;;14.21;77.62;94990.78;4979319;28;25036;-72
2022/09/26 10:14:02;;;;;;;1.52;0.90;;;;;;;14.19;80.73;94986.66;4968011;28;24429;-72
2022/09/26 10:16:30;;;;;;;3.28;0.90;;;;;;;13.89;81.32;94982.41;4979649;28;24447;-73
2022/09/26 10:19:03;;;;;;;2.97;1.05;;;;;;;13.58;83.54;94987.69;4977436;28;25046;-72
2022/09/26 10:21:32;;;;;;;1.88;0.93;;;;;;;13.14;85.60;94984.53;4978981;28;24440;-72
2022/09/26 10:24:01;;;;;;;2.92;0.85;;;;;;;13.17;84.91;94986.03;4968226;28;24504;-70
2022/09/26 10:26:33;;;;;;;2.90;1.00;;;;;;;13.14;86.94;94979.31;4971423;28;24457;-71
2022/09/26 10:29:04;;;;;;;2.08;0.95;;;;;;;13.14;89.07;94986.31;4976716;28;25091;-71
2022/09/26 10:31:35;;;;;;;6.68;1.10;;;;;;;13.34;88.40;94974.22;4972156;28;24544;-71
2022/09/26 10:34:04;;;;;;;1.50;0.70;;;;;;;13.64;86.85;94978.53;4977801;28;24465;-72
2022/09/26 10:36:35;;;;;;;2.20;0.80;;;;;;;13.98;86.61;94979.00;4971657;28;24460;-70
2022/09/26 10:41:49;;;;;;;3.10;0.93;;;;;;;14.00;83.83;94966.66;4971514;28;24780;-72
2022/09/26 10:44:24;;;;;;;2.88;0.80;;;;;;;14.00;83.00;94961.44;4977585;28;24524;-73
2022/09/26 10:46:56;;;;;;;2.47;0.80;;;;;;;13.93;83.53;94965.56;4972157;28;25002;-73
2022/09/26 10:49:30;;;;;;;3.63;0.93;;;;;;;14.19;82.62;94966.66;4978891;28;24437;-72
2022/09/26 10:52:02;;;;;;;2.08;0.75;;;;;;;14.65;82.11;94962.53;4973148;28;24440;-72
2022/09/26 10:54:39;;;;;;;1.73;0.90;;;;;;;14.88;80.73;94955.19;4965591;28;24430;-72
2022/09/26 10:57:08;;;;;;;2.93;1.10;;;;;;;14.76;81.12;94949.31;4973369;28;24500;-72
2022/09/26 10:59:40;;;;;;;5.32;1.15;;;;;;;15.00;79.11;94942.78;4980001;28;24472;-72
2022/09/26 11:02:18;;;;;;;4.97;1.10;;;;;;;15.15;77.20;94941.34;4974419;28;24523;-71
2022/09/26 11:07:34;;;;;;;2.10;1.10;;;;;;;14.60;75.90;94941.25;4977571;28;24425;-71
2022/09/26 11:10:05;;;;;;;2.20;0.90;;;;;;;14.35;77.34;94939.22;4969423;28;24524;-71
2022/09/26 11:12:38;;;;;;;2.55;1.20;;;;;;;14.02;80.02;94944.75;4981227;28;24506;-72
2022/09/26 11:15:09;;;;;;;5.18;0.95;;;;;;;13.64;82.77;94950.72;4976026;28;24991;-71
2022/09/26 11:17:46;;;;;;;3.45;1.00;;;;;;;12.65;95.22;94949.69;4976060;28;24440;-72
2022/09/26 11:20:36;;;;;;;5.73;0.70;;;;;;;11.74;99.80;94939.88;4965641;28;25062;-72
2022/09/26 11:23:11;;;;;;;2.47;0.70;;;;;;;11.48;100.00;94942.78;4967308;28;24433;-72
2022/09/26 11:25:49;;;;;;;1.90;0.80;;;;;;;11.44;100.00;94935.38;4971013;28;24454;-72
2022/09/26 11:28:20;;;;;;;1.90;0.88;;;;;;;11.66;100.00;94937.09;4970022;28;24440;-72
2022/09/26 11:30:55;;;;;;;2.17;0.90;;;;;;;11.73;100.00;94930.47;4975047;28;24437;-71
2022/09/26 11:33:23;;;;;;;2.15;1.23;;;;;;;11.98;100.00;94924.13;4969492;28;24533;-71
2022/09/26 11:36:03;;;;;;;2.90;1.40;;;;;;;12.14;100.00;94910.72;4978506;28;24440;-72
2022/09/26 11:38:38;;;;;;;2.83;1.45;;;;;;;12.35;100.00;94907.16;4964689;28;24812;-73
2022/09/26 11:41:40;;;;;;;1.98;0.73;;;;;;;12.64;100.00;94901.28;4972749;28;24437;-73
2022/09/26 11:44:27;;;;;;;1.35;0.73;;;;;;;13.00;95.99;94894.72;4959671;28;24456;-73
2022/09/26 11:47:08;;;;;;;1.98;1.10;;;;;;;13.19;96.84;94899.13;4976482;28;24657;-73
2022/09/26 11:50:02;;;;;;;2.80;1.00;;;;;;;13.40;91.11;94891.28;4968066;28;24449;-72
2022/09/26 11:52:42;;;;;;;1.25;0.68;;;;;;;13.43;87.58;94891.03;4978600;28;24967;-72
2022/09/26 11:55:18;;;;;;;2.20;0.80;;;;;;;13.44;87.24;94884.03;4969443;28;24429;-72
2022/09/26 11:57:55;;;;;;;1.17;0.70;;;;;;;13.69;85.20;94878.31;4967206;28;24437;-72
2022/09/26 12:00:26;;;;;;;1.77;0.80;;;;;;;13.94;84.36;94863.06;4970804;28;24437;-72
2022/09/26 12:03:15;;;;;;;1.80;0.68;;;;;;;14.05;82.93;94868.13;4975623;28;24492;-71
2022/09/26 12:05:51;;;;;;;1.25;0.70;;;;;;;14.23;82.76;94860.41;4977810;28;24443;-72
2022/09/26 12:08:28;;;;;;;3.28;0.70;;;;;;;14.20;81.99;94860.69;4974414;28;24741;-72
2022/09/26 12:11:04;;;;;;;1.58;0.80;;;;;;;14.22;81.89;94862.19;4983077;28;24536;-71
2022/09/26 12:13:37;;;;;;;1.33;0.73;;;;;;;14.16;81.51;94869.75;4970404;28;24434;-72
2022/09/26 12:16:13;;;;;;;1.92;0.55;;;;;;;13.99;79.44;94851.28;4982951;28;24824;-72